Ravensdale, WA

3:33 PM PDT on July 30, 2016 (GMT -0700)
McDonald Peak Trailhead | Change Station
CLOSE
Current Station
Personal Weather Station
Location: Ravensdale, WA
Elevation: 950 ft
Nearby Weather Stations

Elev 950 ft 47.36 °N, 121.89 °W | Updated 3 minutes ago

Clear
Clear
78.4 °F
Feels Like 79 °F
N
6.0
Wind Variable Wind from SW
Gusts 11.4 mph

Today
High -- | Low -- °F
--% Chance of Precip.
Yesterday
High -- | Low -- °F
Precip. -- in
5:44 AM 8:43 PM
Waning Crescent, 10% visible
Pressure 29.96 in
Visibility 9.0 miles
Clouds Clear
Heat Index 79 °F
Dew Point 54 °F
Humidity 42%
Rainfall 0.00 in
Snow Depth 2 in
UV 8 out of 12
Pollen 4.20 out of 12
Ozone Good
Flu Activity Not available.
METAR KRNT 302153Z VRB06KT 9SM CLR 22/11 A2995 RMK AO2 SLP146 T02220111

More Conditions Fewer Conditions

Pressure 29.96 in
Visibility 9.0 miles
Clouds Clear
Heat Index 79 °F
Dew Point 54 °F
Humidity 42%
Rainfall 0.00 in
Snow Depth 2 in
UV 8 out of 12
Pollen 4.20 out of 12
Ozone Good
Flu Activity Not available.
METAR KRNT 302153Z VRB06KT 9SM CLR 22/11 A2995 RMK AO2 SLP146 T02220111

More Conditions Fewer Conditions

10-Day Weather Forecast

Almanac

Astronomy

Jul. 30, 2016 Rise Set
Actual Time 5:44 AM PDT 8:43 PM PDT
Civil Twilight 5:08 AM PDT 9:18 PM PDT
Nautical Twilight 4:21 AM PDT 10:05 PM PDT
Astronomical Twilight 3:25 AM PDT 11:00 PM PDT
Moon 2:42 AM PDT 6:04 PM PDT
Length of Visible Light 16h 10m
Length of Day
14h 58m
Tomorrow will be 2m 37s shorter.
Waning Crescent, 10% of the Moon is Illuminated
Today
Waning Crescent
Aug 2
New
Aug 10
First Quarter
Aug 18
Full
Aug 24
Last Quarter

Today's Extremes

State Highs State Lows

Community

WunderPhotos

Upload Photos

1,928,664 photos uploaded!

Nearby

Air Quality

  Air Quality AQ Index Pollutant
Yesterday Good
OZONE
Current Good
OZONE
Saturday Good
OZONE
Saturday Good
PM2.5
Sunday Good
OZONE
Sunday Good
PM2.5
Monday Good
OZONE
Monday Good
PM2.5
Tuesday Good
OZONE
Tuesday Good
PM2.5

Snow Depth

Station Depth Elevation
Mount Gardner 2 in 3000 ft
Meadows Pass 0 in 3500 ft
Olallie Meadows 0 in 3700 ft
Alpine Meadows 0 in 3500 ft
Corral Pass 0 in 6000 ft

Earthquake Activity

City Distance Mag. Time & Date
No recent earthquake activity has been reported nearby.
Minimum magnitude displayed is 2.5.

Coastal Water Temperatures

Place Temperature
Port Townsend, WA 55.0 °F
Seattle, WA 55.9 °F
Friday Harbor, WA 54.0 °F
Tacoma, WA 55.0 °F

Nearby Weather Stations